createdAt,value
2022-09-07T00:00:14.521Z,0.00
2022-09-07T00:01:14.552Z,0.00
2022-09-07T00:02:14.577Z,0.00
2022-09-07T00:03:14.714Z,0.00
2022-09-07T00:04:14.694Z,0.00
2022-09-07T00:05:14.665Z,0.00
2022-09-07T00:07:14.724Z,0.00
2022-09-07T00:08:14.753Z,0.00
2022-09-07T00:09:14.782Z,0.00
2022-09-07T00:10:14.812Z,0.00
2022-09-07T00:11:14.842Z,0.00
2022-09-07T00:12:14.868Z,0.00
2022-09-07T00:13:14.900Z,0.00
2022-09-07T00:14:14.925Z,0.00
2022-09-07T00:15:14.955Z,0.00
2022-09-07T00:17:15.617Z,0.00
2022-09-07T00:18:15.042Z,0.00
2022-09-07T00:19:15.071Z,0.00
2022-09-07T00:20:15.116Z,0.00
2022-09-07T00:21:15.128Z,0.00
2022-09-07T00:22:15.157Z,0.00
2022-09-07T00:23:15.185Z,0.00
2022-09-07T00:26:46.114Z,0.00
2022-09-07T00:28:46.171Z,0.00
2022-09-07T00:29:47.616Z,0.00
2022-09-07T00:32:46.287Z,0.00
2022-09-07T00:33:46.315Z,0.00
2022-09-07T00:34:46.549Z,0.00
2022-09-07T00:35:46.382Z,0.00
2022-09-07T00:36:46.406Z,0.00
2022-09-07T00:37:46.431Z,0.00
2022-09-07T00:38:46.462Z,0.00
2022-09-07T00:39:46.541Z,0.00
2022-09-07T00:40:46.520Z,0.00
2022-09-07T00:41:46.546Z,0.00
2022-09-07T00:42:46.577Z,0.00
2022-09-07T00:43:46.605Z,0.00
2022-09-07T00:44:46.635Z,0.00
2022-09-07T00:46:39.355Z,0.00
2022-09-07T00:47:39.269Z,0.00
2022-09-07T00:48:39.295Z,0.00
2022-09-07T00:49:39.328Z,0.00
2022-09-07T00:50:41.975Z,0.00
2022-09-07T00:51:39.598Z,0.00
2022-09-07T00:52:39.411Z,0.00
2022-09-07T00:53:39.441Z,0.00
2022-09-07T00:54:39.466Z,0.00
2022-09-07T00:55:39.497Z,0.00
2022-09-07T00:56:39.524Z,0.00
2022-09-07T00:57:39.554Z,0.00
2022-09-07T00:58:39.581Z,0.00
2022-09-07T00:59:39.615Z,0.00
2022-09-07T01:00:39.639Z,0.00
2022-09-07T01:01:39.780Z,0.00
2022-09-07T01:02:39.885Z,0.00
2022-09-07T01:03:39.728Z,0.00
2022-09-07T01:04:39.756Z,0.00
2022-09-07T01:05:39.785Z,0.00
2022-09-07T01:07:39.844Z,0.00
2022-09-07T01:08:39.871Z,0.00
2022-09-07T01:09:39.901Z,0.00
2022-09-07T01:10:39.928Z,0.00
2022-09-07T01:11:39.964Z,0.00
2022-09-07T01:12:39.990Z,0.00
2022-09-07T01:13:40.020Z,0.00
2022-09-07T01:14:40.043Z,0.00
2022-09-07T01:15:42.939Z,0.00
2022-09-07T01:16:42.720Z,0.00
2022-09-07T01:17:40.136Z,0.00
2022-09-07T01:18:40.151Z,0.00
2022-09-07T01:19:40.182Z,0.00
2022-09-07T01:20:40.211Z,0.00
2022-09-07T01:22:57.870Z,0.00
2022-09-07T01:23:57.918Z,0.00
2022-09-07T01:24:59.138Z,0.00
2022-09-07T01:25:57.958Z,0.00
2022-09-07T01:26:57.982Z,0.00
2022-09-07T01:27:58.028Z,0.00
2022-09-07T01:28:58.039Z,0.00
2022-09-07T01:29:58.276Z,0.00
2022-09-07T01:30:58.452Z,0.00
2022-09-07T01:31:58.331Z,0.00
2022-09-07T01:32:58.161Z,0.00
2022-09-07T01:33:58.389Z,0.00
2022-09-07T01:34:58.426Z,0.00
2022-09-07T01:36:58.272Z,0.00
2022-09-07T01:37:58.301Z,0.00
2022-09-07T01:38:58.326Z,0.00
2022-09-07T01:39:58.439Z,0.00
2022-09-07T01:40:58.388Z,0.00
2022-09-07T01:41:58.416Z,0.00
2022-09-07T01:42:58.442Z,0.00
2022-09-07T01:43:58.474Z,0.00
2022-09-07T01:44:58.501Z,0.00
2022-09-07T01:45:58.573Z,0.00
2022-09-07T01:46:58.562Z,0.00
2022-09-07T01:47:58.590Z,0.00
2022-09-07T01:48:58.617Z,0.00
2022-09-07T01:49:58.649Z,0.00
2022-09-07T01:50:58.676Z,0.00
2022-09-07T01:51:58.707Z,0.00
2022-09-07T01:55:38.133Z,0.00
2022-09-07T01:57:38.187Z,0.00
2022-09-07T01:59:38.453Z,0.00
2022-09-07T02:00:38.476Z,0.00
2022-09-07T02:01:38.688Z,0.00
2022-09-07T02:03:38.566Z,0.00
2022-09-07T02:06:38.438Z,0.00
2022-09-07T02:07:38.465Z,0.00
2022-09-07T02:08:38.498Z,0.00
2022-09-07T02:09:38.524Z,0.00
2022-09-07T02:10:38.555Z,0.00
2022-09-07T02:11:38.586Z,0.00
2022-09-07T02:12:38.824Z,0.00
2022-09-07T02:13:38.645Z,0.00
2022-09-07T02:14:38.675Z,0.00
2022-09-07T02:15:38.830Z,0.00
2022-09-07T02:16:38.732Z,0.00
2022-09-07T02:17:38.758Z,0.00
2022-09-07T02:18:38.795Z,0.00
2022-09-07T02:19:38.815Z,0.00
2022-09-07T02:20:38.867Z,0.00
2022-09-07T02:21:38.873Z,0.00
2022-09-07T02:22:38.902Z,0.00
2022-09-07T02:23:38.932Z,0.00
2022-09-07T02:25:21.511Z,0.00
2022-09-07T02:26:54.757Z,0.00
2022-09-07T02:27:21.571Z,0.00
2022-09-07T02:28:21.597Z,0.00
2022-09-07T02:29:21.627Z,0.00
2022-09-07T02:30:21.657Z,0.00
2022-09-07T02:31:21.759Z,0.00
2022-09-07T02:32:21.711Z,0.00
2022-09-07T02:33:24.364Z,0.00
2022-09-07T02:34:21.770Z,0.00
2022-09-07T02:35:21.799Z,0.00
2022-09-07T02:36:21.826Z,0.00
2022-09-07T02:37:21.857Z,0.00
2022-09-07T02:38:21.884Z,0.00
2022-09-07T02:39:21.916Z,0.00
2022-09-07T02:40:21.941Z,0.00
2022-09-07T02:41:21.974Z,0.00
2022-09-07T02:42:22.000Z,0.00
2022-09-07T02:43:22.032Z,0.00
2022-09-07T02:44:22.058Z,0.00
2022-09-07T02:45:22.090Z,0.00
2022-09-07T02:46:22.200Z,0.00
2022-09-07T02:47:22.150Z,0.00
2022-09-07T02:48:22.174Z,0.00
2022-09-07T02:49:22.206Z,0.00
2022-09-07T02:50:22.234Z,0.00
2022-09-07T02:51:22.264Z,0.00
2022-09-07T02:52:24.911Z,0.00
2022-09-07T02:53:22.320Z,0.00
2022-09-07T02:54:22.348Z,0.00
2022-09-07T02:55:22.379Z,0.00
2022-09-07T02:56:22.406Z,0.00
2022-09-07T02:57:22.438Z,0.00
2022-09-07T02:58:22.464Z,0.00
2022-09-07T02:59:22.496Z,0.00
2022-09-07T03:00:22.521Z,0.00
2022-09-07T03:01:22.726Z,0.00
2022-09-07T03:02:22.660Z,0.00
2022-09-07T03:03:22.611Z,0.00
2022-09-07T03:04:23.445Z,0.00
2022-09-07T03:05:22.671Z,0.00
2022-09-07T03:06:22.697Z,0.00
2022-09-07T03:07:22.728Z,0.00
2022-09-07T03:08:22.755Z,0.00
2022-09-07T03:09:22.785Z,0.00
2022-09-07T03:10:22.816Z,0.00
2022-09-07T03:11:22.842Z,0.00
2022-09-07T03:12:22.868Z,0.00
2022-09-07T03:13:22.900Z,0.00
2022-09-07T03:14:22.926Z,0.00
2022-09-07T03:15:23.015Z,0.00
2022-09-07T03:16:23.036Z,0.00
2022-09-07T03:17:23.016Z,0.00
2022-09-07T03:18:23.042Z,0.00
2022-09-07T03:19:23.077Z,0.00
2022-09-07T03:20:23.113Z,0.00
2022-09-07T03:21:23.131Z,0.00
2022-09-07T03:22:23.158Z,0.00
2022-09-07T03:23:23.188Z,0.00
2022-09-07T03:24:23.214Z,0.00
2022-09-07T03:25:23.249Z,0.00
2022-09-07T03:26:23.273Z,0.00
2022-09-07T03:27:23.302Z,0.00
2022-09-07T03:28:23.329Z,0.00
2022-09-07T03:29:23.361Z,0.00
2022-09-07T03:30:23.390Z,0.00
2022-09-07T03:31:23.479Z,0.00
2022-09-07T03:32:23.446Z,0.00
2022-09-07T03:33:23.478Z,0.00
2022-09-07T03:34:23.505Z,0.00
2022-09-07T03:35:23.534Z,0.00
2022-09-07T03:36:23.560Z,0.00
2022-09-07T03:37:23.592Z,0.00
2022-09-07T03:38:23.621Z,0.00
2022-09-07T03:39:23.650Z,0.00
2022-09-07T03:40:23.678Z,0.00
2022-09-07T03:41:23.710Z,0.00
2022-09-07T03:42:23.736Z,0.00
2022-09-07T03:43:23.766Z,0.00
2022-09-07T03:44:23.796Z,0.00
2022-09-07T03:45:23.840Z,0.00
2022-09-07T03:46:26.541Z,0.00
2022-09-07T03:47:23.923Z,0.00
2022-09-07T03:48:23.993Z,0.00
2022-09-07T03:49:23.937Z,0.00
2022-09-07T03:50:23.964Z,0.00
2022-09-07T03:51:23.995Z,0.00
2022-09-07T03:52:24.021Z,0.00
2022-09-07T03:53:24.053Z,0.00
2022-09-07T03:54:24.080Z,0.00
2022-09-07T03:55:24.111Z,0.00
2022-09-07T03:56:24.142Z,0.00
2022-09-07T03:57:24.167Z,0.00
2022-09-07T03:58:24.195Z,0.00
2022-09-07T03:59:24.227Z,0.00
2022-09-07T04:00:24.253Z,0.00
2022-09-07T04:01:24.353Z,0.00
2022-09-07T04:02:24.359Z,0.00
2022-09-07T04:03:24.342Z,0.00
2022-09-07T04:04:24.371Z,0.00
2022-09-07T04:05:24.399Z,0.00
2022-09-07T04:06:24.430Z,0.00
2022-09-07T04:07:24.457Z,0.00
2022-09-07T04:08:24.487Z,0.00
2022-09-07T04:09:24.515Z,0.00
2022-09-07T04:10:24.541Z,0.00
2022-09-07T04:11:24.573Z,0.00
2022-09-07T04:12:24.601Z,0.00
2022-09-07T04:13:24.630Z,0.00
2022-09-07T04:14:24.658Z,0.00
2022-09-07T04:15:24.690Z,0.00
2022-09-07T04:16:24.765Z,0.00
2022-09-07T04:17:24.747Z,0.00
2022-09-07T04:18:24.881Z,0.00
2022-09-07T04:19:24.803Z,0.00
2022-09-07T04:20:24.829Z,0.00
2022-09-07T04:21:24.860Z,4.00
2022-09-07T04:22:24.895Z,4.00
2022-09-07T04:23:24.919Z,4.00
2022-09-07T04:24:24.945Z,4.00
2022-09-07T04:25:24.976Z,4.00
2022-09-07T04:26:25.005Z,4.00
2022-09-07T04:27:25.032Z,8.00
2022-09-07T04:28:25.098Z,4.00
2022-09-07T04:29:25.092Z,8.00
2022-09-07T04:30:25.121Z,8.00
2022-09-07T04:31:25.219Z,8.00
2022-09-07T04:32:25.176Z,16.00
2022-09-07T04:33:25.209Z,12.00
2022-09-07T04:34:25.235Z,16.00
2022-09-07T04:35:25.265Z,20.00
2022-09-07T04:36:25.291Z,24.00
2022-09-07T04:37:25.323Z,28.00
2022-09-07T04:38:25.390Z,36.00
2022-09-07T04:39:25.551Z,40.00
2022-09-07T04:40:25.407Z,44.00
2022-09-07T04:41:25.438Z,56.00
2022-09-07T04:42:25.465Z,64.00
2022-09-07T04:43:25.496Z,72.00
2022-09-07T04:44:25.520Z,84.00
2022-09-07T04:45:25.552Z,96.00
2022-09-07T04:46:25.678Z,112.00
2022-09-07T04:47:25.612Z,120.00
2022-09-07T04:48:25.637Z,128.00
2022-09-07T04:49:25.668Z,136.00
2022-09-07T04:50:25.696Z,152.00
2022-09-07T04:51:25.726Z,168.00
2022-09-07T04:52:25.752Z,180.00
2022-09-07T04:53:25.784Z,196.00
2022-09-07T04:54:25.810Z,212.00
2022-09-07T04:55:25.840Z,228.00
2022-09-07T04:56:25.866Z,244.00
2022-09-07T04:57:25.922Z,260.00
2022-09-07T04:58:25.926Z,280.00
2022-09-07T04:59:25.957Z,300.00
2022-09-07T05:00:25.981Z,324.00
2022-09-07T05:01:26.228Z,348.00
2022-09-07T05:02:26.103Z,380.00
2022-09-07T05:03:26.071Z,416.00
2022-09-07T05:04:26.097Z,456.00
2022-09-07T05:05:26.128Z,496.00
2022-09-07T05:06:26.156Z,548.00
2022-09-07T05:07:26.185Z,604.00
2022-09-07T05:08:26.213Z,676.00
2022-09-07T05:09:26.242Z,744.00
2022-09-07T05:10:26.271Z,816.00
2022-09-07T05:11:29.190Z,888.00
2022-09-07T05:12:26.331Z,968.00
2022-09-07T05:13:26.363Z,1056.00
2022-09-07T05:14:26.385Z,1136.00
2022-09-07T05:15:26.414Z,1192.00
2022-09-07T05:16:26.489Z,1220.00
2022-09-07T05:17:26.471Z,1268.00
2022-09-07T05:18:26.639Z,1336.00
2022-09-07T05:19:26.530Z,1404.00
2022-09-07T05:20:26.556Z,1468.00
2022-09-07T05:21:26.587Z,1528.00
2022-09-07T05:22:26.613Z,1596.00
2022-09-07T05:23:26.647Z,1660.00
2022-09-07T05:24:26.671Z,1728.00
2022-09-07T05:25:26.704Z,1792.00
2022-09-07T05:26:26.729Z,1864.00
2022-09-07T05:27:26.761Z,1948.00
2022-09-07T05:28:26.824Z,2028.00
2022-09-07T05:31:26.876Z,2252.00
2022-09-07T05:32:26.906Z,2320.00
2022-09-07T05:35:26.990Z,2540.00
2022-09-07T05:36:27.018Z,2588.00
2022-09-07T05:37:27.048Z,2668.00
2022-09-07T05:38:27.136Z,2716.00
2022-09-07T05:39:27.244Z,2780.00
2022-09-07T05:40:27.135Z,2852.00
2022-09-07T05:41:27.163Z,2936.00
2022-09-07T05:42:27.191Z,2964.00
2022-09-07T05:43:27.222Z,3016.00
2022-09-07T05:45:27.347Z,3320.00
2022-09-07T05:46:27.321Z,3512.00
2022-09-07T05:47:27.340Z,4212.00
2022-09-07T05:48:27.436Z,5180.00
2022-09-07T05:49:27.396Z,5496.00
2022-09-07T05:50:27.447Z,5736.00
2022-09-07T05:51:27.471Z,7184.00
2022-09-07T05:52:27.479Z,3084.00
2022-09-07T05:53:27.511Z,2520.00
2022-09-07T05:54:27.539Z,5204.00
2022-09-07T05:55:30.307Z,4776.00
2022-09-07T05:56:27.599Z,3048.00
2022-09-07T05:57:27.627Z,2456.00
2022-09-07T05:58:27.701Z,1884.00
2022-09-07T05:59:27.697Z,2028.00
2022-09-07T06:00:27.723Z,2408.00
2022-09-07T06:01:28.064Z,2532.00
2022-09-07T06:03:27.869Z,2044.00
2022-09-07T06:05:27.861Z,2024.00
2022-09-07T06:06:27.890Z,2200.00
2022-09-07T06:07:27.919Z,2836.00
2022-09-07T06:08:27.962Z,2480.00
2022-09-07T06:09:30.558Z,2668.00
2022-09-07T06:10:43.389Z,2280.00
2022-09-07T06:11:28.037Z,2156.00
2022-09-07T06:12:28.067Z,2176.00
2022-09-07T06:13:28.205Z,1788.00
2022-09-07T06:14:28.126Z,1492.00
2022-09-07T06:15:28.154Z,1732.00
2022-09-07T06:16:28.329Z,1984.00
2022-09-07T06:17:28.214Z,2264.00
2022-09-07T06:18:28.241Z,3792.00
2022-09-07T06:19:28.272Z,3628.00
2022-09-07T06:20:28.299Z,2788.00
2022-09-07T06:21:28.330Z,5252.00
2022-09-07T06:22:31.046Z,4760.00
2022-09-07T06:23:28.438Z,5292.00
2022-09-07T06:24:28.417Z,3844.00
2022-09-07T06:25:28.448Z,4072.00
2022-09-07T06:26:28.477Z,4372.00
2022-09-07T06:27:28.507Z,5636.00
2022-09-07T06:28:28.533Z,5500.00
2022-09-07T06:29:28.566Z,4604.00
2022-09-07T06:30:28.594Z,4124.00
2022-09-07T06:31:28.934Z,4720.00
2022-09-07T06:32:44.585Z,3280.00
2022-09-07T06:33:28.791Z,4312.00
2022-09-07T06:34:28.711Z,3684.00
2022-09-07T06:35:28.744Z,4096.00
2022-09-07T06:36:28.771Z,3252.00
2022-09-07T06:37:28.802Z,5684.00
2022-09-07T06:38:31.796Z,5780.00
2022-09-07T06:39:28.901Z,4580.00
2022-09-07T06:40:28.889Z,6328.00
2022-09-07T06:42:28.949Z,5296.00
2022-09-07T06:43:29.013Z,6060.00
2022-09-07T06:44:29.008Z,6160.00
2022-09-07T06:45:29.086Z,8108.00
2022-09-07T06:47:29.098Z,9960.00
2022-09-07T06:48:29.129Z,13560.00
2022-09-07T06:49:29.152Z,11732.00
2022-09-07T06:50:29.189Z,7760.00
2022-09-07T06:51:29.215Z,6508.00
2022-09-07T06:52:29.387Z,6132.00
2022-09-07T06:53:37.641Z,5920.00
2022-09-07T06:55:29.340Z,5596.00
2022-09-07T06:56:29.365Z,5400.00
2022-09-07T06:57:29.395Z,5432.00
2022-09-07T06:58:29.461Z,5300.00
2022-09-07T06:59:29.455Z,5196.00
2022-09-07T07:00:29.503Z,5104.00
2022-09-07T07:01:29.541Z,5056.00
2022-09-07T07:02:29.545Z,5040.00
2022-09-07T07:03:29.674Z,5052.00
2022-09-07T07:04:29.606Z,4992.00
2022-09-07T07:05:29.633Z,4860.00
2022-09-07T07:06:29.667Z,4732.00
2022-09-07T07:07:29.695Z,4732.00
2022-09-07T07:08:29.776Z,4800.00
2022-09-07T07:09:29.755Z,4936.00
2022-09-07T07:10:29.786Z,5184.00
2022-09-07T07:11:29.814Z,5760.00
2022-09-07T07:13:09.325Z,6420.00
2022-09-07T07:14:13.394Z,6776.00
2022-09-07T07:15:09.387Z,7432.00
2022-09-07T07:16:09.444Z,8288.00
2022-09-07T07:17:09.445Z,9420.00
2022-09-07T07:18:20.889Z,9820.00
2022-09-07T07:19:09.506Z,10144.00
2022-09-07T07:20:09.538Z,12224.00
2022-09-07T07:21:09.571Z,11892.00
2022-09-07T07:22:45.407Z,13384.00
2022-09-07T07:23:09.628Z,14124.00
2022-09-07T07:24:09.660Z,13200.00
2022-09-07T07:25:09.689Z,13948.00
2022-09-07T07:26:09.723Z,14108.00
2022-09-07T07:27:09.764Z,14220.00
2022-09-07T07:29:09.814Z,13160.00
2022-09-07T07:30:09.850Z,11796.00
2022-09-07T07:31:12.178Z,13172.00
2022-09-07T07:32:09.910Z,13232.00
2022-09-07T07:33:09.994Z,12760.00
2022-09-07T07:34:10.052Z,12320.00
2022-09-07T07:35:10.002Z,13916.00
2022-09-07T07:36:10.034Z,13880.00
2022-09-07T07:37:10.065Z,12032.00
2022-09-07T07:42:10.225Z,12136.00
2022-09-07T07:43:10.253Z,12528.00
2022-09-07T07:44:10.286Z,13548.00
2022-09-07T07:46:10.398Z,14180.00
2022-09-07T07:47:10.381Z,14696.00
2022-09-07T07:48:10.415Z,15216.00
2022-09-07T07:49:10.444Z,14872.00
2022-09-07T07:51:12.086Z,14028.00
2022-09-07T07:54:10.607Z,12540.00
2022-09-07T07:56:10.671Z,11656.00
2022-09-07T07:57:10.700Z,12732.00
2022-09-07T07:58:10.736Z,13276.00
2022-09-07T07:59:15.126Z,12652.00
2022-09-07T08:00:10.801Z,12432.00
2022-09-07T08:01:10.900Z,12292.00
2022-09-07T08:02:10.946Z,11800.00
2022-09-07T08:03:10.898Z,11092.00
2022-09-07T08:04:10.931Z,11356.00
2022-09-07T08:05:10.963Z,12176.00
2022-09-07T08:06:11.016Z,12040.00
2022-09-07T08:07:11.444Z,11076.00
2022-09-07T08:08:11.062Z,10844.00
2022-09-07T08:09:11.099Z,10488.00
2022-09-07T08:10:11.127Z,11052.00
2022-09-07T08:11:11.161Z,10680.00
2022-09-07T08:12:11.286Z,11480.00
2022-09-07T08:13:11.223Z,11020.00
2022-09-07T08:14:11.259Z,10452.00
2022-09-07T08:15:11.289Z,10004.00
2022-09-07T08:16:11.365Z,10172.00
2022-09-07T08:17:11.356Z,10488.00
2022-09-07T08:18:11.391Z,10460.00
2022-09-07T08:19:11.421Z,10500.00
2022-09-07T08:20:11.467Z,10624.00
2022-09-07T08:21:11.488Z,10252.00
2022-09-07T08:22:11.540Z,9200.00
2022-09-07T08:23:11.574Z,9528.00
2022-09-07T08:24:11.587Z,10308.00
2022-09-07T08:25:11.618Z,10280.00
2022-09-07T08:26:11.655Z,9832.00
2022-09-07T08:27:11.687Z,9876.00
2022-09-07T08:28:11.725Z,9620.00
2022-09-07T08:29:11.753Z,9376.00
2022-09-07T08:30:11.787Z,9736.00
2022-09-07T08:31:11.884Z,10068.00
2022-09-07T08:32:11.854Z,10080.00
2022-09-07T08:33:11.886Z,10040.00
2022-09-07T08:34:11.922Z,10220.00
2022-09-07T08:35:11.953Z,9120.00
2022-09-07T08:36:11.988Z,9496.00
2022-09-07T08:37:12.020Z,10840.00
2022-09-07T08:38:12.074Z,11340.00
2022-09-07T08:39:12.087Z,12052.00
2022-09-07T08:40:12.175Z,11788.00
2022-09-07T08:41:12.155Z,11184.00
2022-09-07T08:42:15.419Z,11308.00
2022-09-07T08:43:12.220Z,11268.00
2022-09-07T08:44:12.253Z,12132.00
2022-09-07T08:45:12.286Z,10504.00
2022-09-07T08:46:12.376Z,8268.00
2022-09-07T08:47:12.366Z,7568.00
2022-09-07T08:48:12.387Z,8004.00
2022-09-07T08:49:12.623Z,8336.00
2022-09-07T08:50:12.453Z,8520.00
2022-09-07T08:51:12.484Z,9172.00
2022-09-07T08:52:12.519Z,9324.00
2022-09-07T08:53:12.554Z,9696.00
2022-09-07T08:54:12.654Z,9756.00
2022-09-07T08:55:12.667Z,8928.00
2022-09-07T08:56:12.650Z,8616.00
2022-09-07T08:57:28.037Z,11584.00
2022-09-07T08:58:27.124Z,13768.00
2022-09-07T08:59:12.749Z,14256.00
2022-09-07T09:00:12.784Z,14628.00
2022-09-07T09:02:28.977Z,13648.00
2022-09-07T09:03:29.003Z,10560.00
2022-09-07T09:04:17.068Z,8604.00
2022-09-07T09:05:17.441Z,8436.00
2022-09-07T09:06:13.384Z,11292.00
2022-09-07T09:07:13.015Z,13896.00
2022-09-07T09:08:13.051Z,15480.00
2022-09-07T09:09:13.082Z,17408.00
2022-09-07T09:10:13.135Z,18368.00
2022-09-07T09:11:13.150Z,17024.00
2022-09-07T09:12:13.185Z,15700.00
2022-09-07T09:13:13.218Z,15052.00
2022-09-07T09:14:13.254Z,14056.00
2022-09-07T09:15:13.286Z,14512.00
2022-09-07T09:16:13.399Z,15584.00
2022-09-07T09:17:13.352Z,15224.00
2022-09-07T09:18:14.500Z,15096.00
2022-09-07T09:19:13.421Z,12168.00
2022-09-07T09:20:13.458Z,11900.00
2022-09-07T09:21:13.497Z,12144.00
2022-09-07T09:22:13.525Z,11556.00
2022-09-07T09:24:13.613Z,12320.00
2022-09-07T09:33:13.918Z,12940.00
2022-09-07T09:38:14.087Z,17728.00
2022-09-07T10:10:15.391Z,12548.00
2022-09-07T10:18:15.445Z,14312.00
2022-09-07T10:19:15.482Z,13400.00
2022-09-07T10:20:15.527Z,13516.00
2022-09-07T10:22:58.141Z,14408.00
2022-09-07T10:23:58.174Z,15024.00
2022-09-07T10:24:58.210Z,15384.00
2022-09-07T10:25:58.260Z,15008.00
2022-09-07T10:26:58.276Z,15032.00
2022-09-07T10:27:58.313Z,16672.00
2022-09-07T10:29:14.480Z,16128.00
2022-09-07T10:29:58.380Z,14052.00
2022-09-07T10:30:58.434Z,13408.00
2022-09-07T10:31:58.452Z,13864.00
2022-09-07T10:32:58.483Z,13352.00
2022-09-07T10:34:27.177Z,13680.00
2022-09-07T10:34:58.551Z,13836.00
2022-09-07T10:35:58.591Z,13452.00
2022-09-07T10:36:58.621Z,13236.00
2022-09-07T10:37:58.659Z,12488.00
2022-09-07T10:38:58.690Z,12508.00
2022-09-07T10:40:00.606Z,11664.00
2022-09-07T10:40:58.762Z,11776.00
2022-09-07T10:41:58.813Z,13428.00
2022-09-07T10:43:28.752Z,14068.00
2022-09-07T10:43:58.864Z,13756.00
2022-09-07T10:51:05.130Z,8116.00
2022-09-07T10:51:59.138Z,7888.00
2022-09-07T10:52:59.395Z,8020.00
2022-09-07T10:55:59.276Z,7688.00
2022-09-07T10:56:59.530Z,8236.00
2022-09-07T10:57:59.614Z,8348.00
2022-09-07T10:59:03.562Z,8668.00
2022-09-07T11:00:14.682Z,8644.00
2022-09-07T11:00:59.667Z,8580.00
2022-09-07T11:01:59.495Z,8556.00
2022-09-07T11:04:00.517Z,8520.00
2022-09-07T11:04:59.604Z,8548.00
2022-09-07T11:05:59.845Z,8592.00
2022-09-07T11:07:59.708Z,8468.00
2022-09-07T11:09:17.052Z,8828.00
2022-09-07T11:10:00.290Z,9272.00
2022-09-07T11:10:59.815Z,9092.00
2022-09-07T11:12:01.350Z,9132.00
2022-09-07T11:15:00.159Z,9136.00
2022-09-07T11:16:00.375Z,9216.00
2022-09-07T11:18:00.308Z,8664.00
2022-09-07T11:20:00.435Z,10284.00
2022-09-07T11:21:00.158Z,10308.00
2022-09-07T11:22:00.906Z,10004.00
2022-09-07T11:24:00.466Z,10016.00
2022-09-07T11:25:30.692Z,9888.00
2022-09-07T11:26:00.332Z,9336.00
2022-09-07T11:27:01.078Z,8940.00
2022-09-07T11:28:00.901Z,9456.00
2022-09-07T11:30:00.667Z,9904.00
2022-09-07T11:32:00.561Z,7764.00
2022-09-07T11:35:00.641Z,6128.00
2022-09-07T11:36:00.670Z,5576.00
2022-09-07T11:37:01.014Z,5328.00
2022-09-07T11:38:01.433Z,4996.00
2022-09-07T11:39:02.095Z,4720.00
2022-09-07T11:42:01.790Z,4776.00
2022-09-07T11:43:01.200Z,5020.00
2022-09-07T11:45:00.984Z,5388.00
2022-09-07T11:46:01.079Z,5948.00
2022-09-07T11:47:01.034Z,6488.00
2022-09-07T11:48:01.092Z,7128.00
2022-09-07T11:49:01.945Z,8256.00
2022-09-07T11:50:01.129Z,9056.00
2022-09-07T11:51:01.159Z,9344.00
2022-09-07T11:52:04.965Z,9492.00
2022-09-07T11:53:01.224Z,9444.00
2022-09-07T11:54:01.259Z,9324.00
2022-09-07T11:55:01.294Z,9492.00
2022-09-07T11:56:01.324Z,9904.00
2022-09-07T11:57:01.356Z,9460.00
2022-09-07T11:58:01.390Z,9340.00
2022-09-07T11:59:01.421Z,9652.00
2022-09-07T12:00:01.457Z,9696.00
2022-09-07T12:01:01.487Z,10200.00
2022-09-07T12:02:01.521Z,10492.00
2022-09-07T12:03:01.633Z,10540.00
2022-09-07T12:04:01.722Z,10496.00
2022-09-07T12:05:01.648Z,9896.00
2022-09-07T12:06:01.652Z,9972.00
2022-09-07T12:07:01.698Z,9412.00
2022-09-07T12:08:01.722Z,9548.00
2022-09-07T12:09:01.755Z,9248.00
2022-09-07T12:10:01.784Z,8788.00
2022-09-07T12:11:01.820Z,8600.00
2022-09-07T12:12:01.852Z,9028.00
2022-09-07T12:13:01.898Z,8804.00
2022-09-07T12:14:01.918Z,8716.00
2022-09-07T12:15:01.951Z,8336.00
2022-09-07T12:16:02.029Z,7644.00
2022-09-07T12:17:02.017Z,7284.00
2022-09-07T12:18:02.251Z,7464.00
2022-09-07T12:19:02.082Z,7652.00
2022-09-07T12:20:02.441Z,7684.00
2022-09-07T12:21:02.147Z,8224.00
2022-09-07T12:22:02.287Z,8140.00
2022-09-07T12:23:04.818Z,8504.00
2022-09-07T12:24:02.259Z,9248.00
2022-09-07T12:25:02.286Z,10096.00
2022-09-07T12:26:02.315Z,10424.00
2022-09-07T12:27:02.366Z,9680.00
2022-09-07T12:28:02.386Z,9516.00
2022-09-07T12:29:02.415Z,9768.00
2022-09-07T12:30:02.448Z,10184.00
2022-09-07T12:31:02.566Z,10716.00
2022-09-07T12:33:02.594Z,10692.00
2022-09-07T12:34:02.592Z,10016.00
2022-09-07T12:35:02.619Z,9180.00
2022-09-07T12:36:02.669Z,8696.00
2022-09-07T12:37:02.679Z,8548.00
2022-09-07T12:38:02.713Z,8340.00
2022-09-07T12:39:02.744Z,8272.00
2022-09-07T12:40:02.953Z,7928.00
2022-09-07T12:41:02.815Z,7308.00
2022-09-07T12:43:09.702Z,8096.00
2022-09-07T12:44:02.913Z,7448.00
2022-09-07T12:45:02.947Z,7476.00
2022-09-07T12:46:03.089Z,8564.00
2022-09-07T12:47:03.013Z,8276.00
2022-09-07T12:48:04.562Z,8972.00
2022-09-07T12:49:03.078Z,9964.00
2022-09-07T12:50:03.111Z,9356.00
2022-09-07T12:51:03.144Z,7840.00
2022-09-07T12:52:11.419Z,7480.00
2022-09-07T12:53:03.210Z,7248.00
2022-09-07T12:54:03.264Z,7744.00
2022-09-07T12:55:26.765Z,7072.00
2022-09-07T12:56:18.670Z,7152.00
2022-09-07T12:58:03.378Z,8044.00
2022-09-07T12:59:03.408Z,7420.00
2022-09-07T13:00:03.442Z,7800.00
2022-09-07T13:01:05.525Z,8528.00
2022-09-07T13:02:03.604Z,8880.00
2022-09-07T13:03:04.293Z,9004.00
2022-09-07T13:04:03.575Z,8832.00
2022-09-07T13:05:03.606Z,8400.00
2022-09-07T13:06:03.642Z,8144.00
2022-09-07T13:07:03.868Z,8144.00
2022-09-07T13:08:08.685Z,8236.00
2022-09-07T13:09:03.770Z,8064.00
2022-09-07T13:10:03.774Z,7840.00
2022-09-07T13:11:03.806Z,8160.00
2022-09-07T13:12:03.842Z,8044.00
2022-09-07T13:13:03.874Z,7560.00
2022-09-07T13:14:05.359Z,7568.00
2022-09-07T13:15:04.648Z,7772.00
2022-09-07T13:16:04.065Z,7020.00
2022-09-07T13:17:19.524Z,7028.00
2022-09-07T13:18:04.056Z,7372.00
2022-09-07T13:19:04.087Z,7972.00
2022-09-07T13:20:04.121Z,8300.00
2022-09-07T13:21:04.155Z,8760.00
2022-09-07T13:22:04.193Z,8572.00
2022-09-07T13:24:45.789Z,8004.00
2022-09-07T13:25:04.477Z,7280.00
2022-09-07T13:27:04.554Z,6244.00
2022-09-07T13:28:05.974Z,5760.00
2022-09-07T13:29:04.415Z,5992.00
2022-09-07T13:30:04.454Z,6336.00
2022-09-07T13:31:05.156Z,6512.00
2022-09-07T13:32:04.574Z,6992.00
2022-09-07T13:33:08.319Z,7648.00
2022-09-07T13:35:05.023Z,9136.00
2022-09-07T13:36:04.649Z,9708.00
2022-09-07T13:37:05.585Z,9072.00
2022-09-07T13:38:04.926Z,8592.00
2022-09-07T13:39:04.749Z,8676.00
2022-09-07T13:40:05.038Z,8096.00
2022-09-07T13:41:04.841Z,7768.00
2022-09-07T13:42:04.849Z,8008.00
2022-09-07T13:44:04.921Z,8660.00
2022-09-07T13:46:05.205Z,9808.00
2022-09-07T13:48:05.048Z,9376.00
2022-09-07T13:49:05.688Z,8420.00
2022-09-07T13:50:05.120Z,7752.00
2022-09-07T13:51:05.145Z,7792.00
2022-09-07T13:52:05.899Z,7968.00
2022-09-07T13:54:05.243Z,8428.00
2022-09-07T13:56:05.727Z,7600.00
2022-09-07T14:00:05.447Z,6852.00
2022-09-07T14:01:05.528Z,6368.00
2022-09-07T14:02:05.745Z,6204.00
2022-09-07T14:04:05.790Z,7400.00
2022-09-07T14:05:05.907Z,6764.00
2022-09-07T14:07:05.674Z,6568.00
2022-09-07T14:08:05.711Z,5724.00
2022-09-07T14:09:05.744Z,5052.00
2022-09-07T14:11:05.816Z,4840.00
2022-09-07T14:12:05.867Z,5004.00
2022-09-07T14:14:06.218Z,5672.00
2022-09-07T14:15:09.096Z,6312.00
2022-09-07T14:16:06.182Z,6840.00
2022-09-07T14:17:06.112Z,7072.00
2022-09-07T14:18:06.248Z,7364.00
2022-09-07T14:19:06.467Z,7552.00
2022-09-07T14:21:06.154Z,7668.00
2022-09-07T14:23:06.614Z,8476.00
2022-09-07T14:24:06.448Z,8592.00
2022-09-07T14:25:06.274Z,8500.00
2022-09-07T14:26:21.815Z,8284.00
2022-09-07T14:27:06.559Z,7896.00
2022-09-07T14:29:06.636Z,7264.00
2022-09-07T14:30:06.439Z,6524.00
2022-09-07T14:31:06.526Z,6580.00
2022-09-07T14:33:06.594Z,6504.00
2022-09-07T14:34:06.794Z,6464.00
2022-09-07T14:36:29.481Z,5508.00
2022-09-07T14:37:06.883Z,5196.00
2022-09-07T14:39:06.793Z,5084.00
2022-09-07T14:40:07.499Z,4948.00
2022-09-07T14:41:06.807Z,4924.00
2022-09-07T14:42:07.705Z,4488.00
2022-09-07T14:44:06.914Z,4196.00
2022-09-07T14:45:06.951Z,3952.00
2022-09-07T14:46:07.050Z,3888.00
2022-09-07T14:48:07.249Z,3840.00
2022-09-07T14:49:08.287Z,3720.00